Time;durP1;ratioP1;P1;durP2;ratioP2;P2;SDS_P1;SDS_P2;PMS_P1;PMS_P2;Temp;Humidity;BMP_temperature;BMP_pressure;BME280_temperature;BME280_humidity;BME280_pressure;Samples;Min_cycle;Max_cycle;Signal;HPM_P1;HPM_P2
2022/03/12 00:00:00;;;;;;;9.15;4.35;;;9.40;99.90;;;;;;4998706;28;20030;-65
2022/03/12 00:02:32;;;;;;;7.25;4.00;;;9.30;99.90;;;;;;4997747;28;20395;-65
2022/03/12 00:04:58;;;;;;;8.80;4.18;;;9.40;99.90;;;;;;4994275;28;20078;-65
2022/03/12 00:07:25;;;;;;;9.48;4.47;;;9.40;99.90;;;;;;4995829;28;20390;-65
2022/03/12 00:09:51;;;;;;;12.10;4.20;;;9.40;99.90;;;;;;4999277;28;20096;-64
2022/03/12 00:12:19;;;;;;;8.43;4.03;;;9.40;99.90;;;;;;4997593;28;20044;-65
2022/03/12 00:14:46;;;;;;;9.18;4.15;;;9.40;99.90;;;;;;4996150;28;20462;-65
2022/03/12 00:17:13;;;;;;;8.68;4.47;;;9.30;99.90;;;;;;4997065;28;20108;-65
2022/03/12 00:19:41;;;;;;;13.52;4.35;;;9.30;99.90;;;;;;4993253;28;20562;-65
2022/03/12 00:22:07;;;;;;;9.63;4.35;;;9.20;99.90;;;;;;4999154;28;20027;-64
2022/03/12 00:24:34;;;;;;;9.18;4.40;;;9.30;99.90;;;;;;4997483;28;20062;-64
2022/03/12 00:27:01;;;;;;;7.65;4.03;;;9.30;99.90;;;;;;4998519;28;20018;-65
2022/03/12 00:29:27;;;;;;;9.32;4.65;;;9.30;99.90;;;;;;4996874;28;20025;-63
2022/03/12 00:31:54;;;;;;;10.55;4.47;;;9.30;99.90;;;;;;4993117;28;20022;-64
2022/03/12 00:34:20;;;;;;;8.57;3.80;;;9.20;99.90;;;;;;4995644;28;20061;-64
2022/03/12 00:36:47;;;;;;;13.60;3.90;;;9.30;99.90;;;;;;4997148;28;20033;-64
2022/03/12 00:39:15;;;;;;;9.57;3.97;;;9.30;99.90;;;;;;4996385;28;20042;-65
2022/03/12 00:41:44;;;;;;;11.63;4.20;;;9.30;99.90;;;;;;4996644;28;20049;-64
2022/03/12 00:44:13;;;;;;;12.90;4.20;;;9.20;99.90;;;;;;4994948;28;20490;-65
2022/03/12 00:46:39;;;;;;;12.13;4.90;;;9.30;99.90;;;;;;4993087;28;20117;-64
2022/03/12 00:49:05;;;;;;;9.57;3.63;;;9.20;99.90;;;;;;4998770;28;20034;-65
2022/03/12 00:51:30;;;;;;;12.95;4.00;;;9.20;99.90;;;;;;4996617;28;20061;-65
2022/03/12 00:53:56;;;;;;;12.50;4.25;;;9.40;99.90;;;;;;4995315;28;20027;-65
2022/03/12 00:56:22;;;;;;;16.55;4.63;;;9.30;99.90;;;;;;4996737;28;20104;-65
2022/03/12 00:58:48;;;;;;;13.48;4.90;;;9.10;99.90;;;;;;4993122;28;20038;-65
2022/03/12 01:01:14;;;;;;;15.88;4.93;;;9.00;99.90;;;;;;4997660;28;20065;-65
2022/03/12 01:03:40;;;;;;;15.80;5.25;;;9.00;99.90;;;;;;4995858;28;20030;-65
2022/03/12 01:06:07;;;;;;;15.70;4.70;;;9.00;99.90;;;;;;4996100;28;20109;-65
2022/03/12 01:08:35;;;;;;;18.02;4.68;;;9.20;99.90;;;;;;4996304;28;20055;-65
2022/03/12 01:11:05;;;;;;;13.02;4.10;;;9.30;99.90;;;;;;4993320;28;20034;-65
2022/03/12 01:13:31;;;;;;;13.45;4.60;;;9.20;99.90;;;;;;4993373;28;20033;-65
2022/03/12 01:15:57;;;;;;;13.77;4.47;;;9.10;99.90;;;;;;4998536;28;20026;-65
2022/03/12 01:18:24;;;;;;;14.20;4.30;;;9.20;99.90;;;;;;4996117;28;20050;-65
2022/03/12 01:20:51;;;;;;;11.85;4.47;;;9.20;99.90;;;;;;4996509;28;20018;-65
2022/03/12 01:23:17;;;;;;;16.45;4.60;;;9.10;99.90;;;;;;4994793;28;20029;-66
2022/03/12 01:25:45;;;;;;;14.40;4.22;;;9.20;99.90;;;;;;4992046;28;20106;-65
2022/03/12 01:28:13;;;;;;;15.82;4.40;;;9.20;99.90;;;;;;4997870;28;20034;-65
2022/03/12 01:30:43;;;;;;;14.68;4.15;;;9.20;99.90;;;;;;4997131;28;20089;-65
2022/03/12 01:33:09;;;;;;;15.25;4.00;;;9.20;99.90;;;;;;4994404;28;20414;-65
2022/03/12 01:35:36;;;;;;;14.43;3.58;;;9.20;99.90;;;;;;4996215;28;20030;-65
2022/03/12 01:38:03;;;;;;;13.43;3.65;;;9.10;99.90;;;;;;4993953;28;20060;-65
2022/03/12 01:40:29;;;;;;;16.85;4.13;;;9.10;99.90;;;;;;4992548;28;20050;-65
2022/03/12 01:42:55;;;;;;;18.73;4.00;;;9.10;99.90;;;;;;4998458;28;20093;-65
2022/03/12 01:45:27;;;;;;;14.07;4.07;;;9.10;99.90;;;;;;4995995;28;20046;-65
2022/03/12 01:48:06;;;;;;;15.52;4.50;;;9.10;99.90;;;;;;4995337;28;20113;-65
2022/03/12 01:50:35;;;;;;;21.77;5.10;;;9.20;99.90;;;;;;4994078;28;20033;-65
2022/03/12 01:53:08;;;;;;;16.92;4.75;;;9.20;99.90;;;;;;4993928;28;20030;-64
2022/03/12 01:55:39;;;;;;;18.60;4.68;;;9.20;99.90;;;;;;4992246;28;20392;-65
2022/03/12 01:58:05;;;;;;;19.77;4.40;;;9.20;99.90;;;;;;4997573;28;20132;-65
2022/03/12 02:00:46;;;;;;;16.17;4.00;;;9.10;99.90;;;;;;4995425;28;20116;-64
2022/03/12 02:03:14;;;;;;;15.63;4.22;;;9.10;99.90;;;;;;4993851;28;20430;-65
2022/03/12 02:05:40;;;;;;;19.55;4.22;;;9.00;99.90;;;;;;4995743;28;20446;-65
2022/03/12 02:08:13;;;;;;;14.50;4.28;;;9.00;99.90;;;;;;4994481;28;20026;-65
2022/03/12 02:10:39;;;;;;;19.10;5.00;;;8.90;99.90;;;;;;4990763;28;20022;-64
2022/03/12 02:13:05;;;;;;;17.30;4.57;;;8.90;99.90;;;;;;4997096;28;20033;-65
2022/03/12 02:15:31;;;;;;;19.90;4.75;;;8.90;99.90;;;;;;4995372;28;20034;-65
2022/03/12 02:17:57;;;;;;;24.63;5.25;;;8.80;99.90;;;;;;4994676;28;20035;-65
2022/03/12 02:20:23;;;;;;;18.92;5.32;;;8.80;99.90;;;;;;4993832;28;20027;-65
2022/03/12 02:22:53;;;;;;;20.95;5.13;;;8.80;99.90;;;;;;4991846;28;20124;-65
2022/03/12 02:25:30;;;;;;;16.60;4.03;;;8.80;99.90;;;;;;4994969;28;20057;-65
2022/03/12 02:27:57;;;;;;;18.20;4.70;;;8.70;99.90;;;;;;4997113;28;20137;-65
2022/03/12 02:30:47;;;;;;;21.38;5.30;;;8.70;99.90;;;;;;4993621;28;20353;-65
2022/03/12 02:33:14;;;;;;;23.75;4.72;;;8.70;99.90;;;;;;4994638;28;20026;-65
2022/03/12 02:35:44;;;;;;;21.33;4.72;;;8.60;99.90;;;;;;4994835;28;20026;-65
2022/03/12 02:38:10;;;;;;;20.92;5.05;;;8.60;99.90;;;;;;4994430;28;20041;-65
2022/03/12 02:40:36;;;;;;;17.40;4.95;;;8.60;99.90;;;;;;4990808;28;20058;-65
2022/03/12 02:43:03;;;;;;;20.70;5.82;;;8.60;99.90;;;;;;4996181;28;20395;-65
2022/03/12 02:45:29;;;;;;;22.95;8.77;;;8.60;99.90;;;;;;4994872;28;20030;-65
2022/03/12 02:47:56;;;;;;;24.75;7.13;;;8.60;99.90;;;;;;4994819;28;20076;-65
2022/03/12 02:50:23;;;;;;;26.70;7.43;;;8.60;99.90;;;;;;4993214;28;20523;-65
2022/03/12 02:52:49;;;;;;;19.80;6.45;;;8.50;99.90;;;;;;4990509;28;20034;-65
2022/03/12 02:55:24;;;;;;;21.80;6.00;;;8.50;99.90;;;;;;4994366;28;20112;-65
2022/03/12 02:57:51;;;;;;;21.80;5.55;;;8.50;99.90;;;;;;4996223;28;20053;-65
2022/03/12 03:00:19;;;;;;;21.40;4.80;;;8.60;99.90;;;;;;4994374;28;20034;-65
2022/03/12 03:02:53;;;;;;;23.92;7.20;;;8.60;99.90;;;;;;4994599;28;20406;-64
2022/03/12 03:08:03;;;;;;;29.63;9.63;;;8.50;99.90;;;;;;4990929;28;19952;-65
2022/03/12 03:10:34;;;;;;;32.10;11.63;;;8.50;99.90;;;;;;4992355;28;20053;-65
2022/03/12 03:13:17;;;;;;;19.35;9.05;;;8.40;99.90;;;;;;4996664;28;20042;-65
2022/03/12 03:15:49;;;;;;;33.20;13.93;;;8.50;99.90;;;;;;4993728;28;20516;-64
2022/03/12 03:18:16;;;;;;;35.63;14.98;;;8.40;99.90;;;;;;4994205;28;20535;-64
2022/03/12 03:20:42;;;;;;;21.25;8.68;;;8.40;99.90;;;;;;4993085;28;20030;-64
2022/03/12 03:23:09;;;;;;;31.27;14.57;;;8.40;99.90;;;;;;4993945;28;20030;-64
2022/03/12 03:25:35;;;;;;;28.30;11.60;;;8.30;99.90;;;;;;4990972;28;20158;-64
2022/03/12 03:28:02;;;;;;;33.50;16.95;;;8.30;99.90;;;;;;4996470;28;20498;-64
2022/03/12 03:30:35;;;;;;;34.50;17.67;;;8.30;99.90;;;;;;4992778;28;20411;-64
2022/03/12 03:33:03;;;;;;;35.60;16.95;;;8.30;99.90;;;;;;4994515;28;20022;-65
2022/03/12 03:35:29;;;;;;;27.15;11.43;;;8.30;99.90;;;;;;4994674;28;20038;-65
2022/03/12 03:37:56;;;;;;;27.63;13.10;;;8.30;99.90;;;;;;4991556;28;20044;-64
2022/03/12 03:40:22;;;;;;;33.70;11.25;;;8.40;99.90;;;;;;4993318;28;20050;-64
2022/03/12 03:42:47;;;;;;;34.65;11.70;;;8.40;99.90;;;;;;4994730;28;20036;-65
2022/03/12 03:45:21;;;;;;;31.35;11.07;;;8.40;99.90;;;;;;4993567;28;20035;-65
2022/03/12 03:47:47;;;;;;;;;;;8.30;99.90;;;;;;4992937;28;20376;-64
2022/03/12 03:50:13;;;;;;;19.85;8.02;;;8.40;99.90;;;;;;4994287;28;19913;-64
2022/03/12 03:52:39;;;;;;;26.02;7.95;;;8.40;99.90;;;;;;4990194;28;20526;-64
2022/03/12 03:55:06;;;;;;;18.67;6.88;;;8.30;99.90;;;;;;4996210;28;20050;-64
2022/03/12 03:57:32;;;;;;;21.70;6.97;;;8.30;99.90;;;;;;4994057;28;20029;-64
2022/03/12 03:59:57;;;;;;;23.00;6.13;;;8.30;99.90;;;;;;4992678;28;20039;-65
2022/03/12 04:02:23;;;;;;;28.38;6.03;;;8.20;99.90;;;;;;4994064;28;20032;-65
2022/03/12 04:04:51;;;;;;;17.98;4.63;;;8.20;99.90;;;;;;4994040;28;20090;-65
2022/03/12 04:07:17;;;;;;;17.05;4.70;;;8.30;99.90;;;;;;4998125;28;20026;-65
2022/03/12 04:09:42;;;;;;;18.85;5.25;;;8.30;99.90;;;;;;4997256;28;20038;-65
2022/03/12 04:12:09;;;;;;;14.27;4.70;;;8.20;99.90;;;;;;4997696;28;20038;-65
2022/03/12 04:14:34;;;;;;;19.17;5.20;;;8.30;99.90;;;;;;4997227;28;20422;-65
2022/03/12 04:17:01;;;;;;;15.00;4.50;;;8.30;99.90;;;;;;4995618;28;20014;-64
2022/03/12 04:19:29;;;;;;;18.40;4.25;;;8.40;99.90;;;;;;4995245;28;20120;-64
2022/03/12 04:21:57;;;;;;;19.83;4.38;;;8.40;99.90;;;;;;4998039;28;20406;-65
2022/03/12 04:24:24;;;;;;;15.10;4.82;;;8.40;99.90;;;;;;4997334;28;20091;-64
2022/03/12 04:26:50;;;;;;;17.00;5.50;;;8.30;99.90;;;;;;4994598;28;20050;-64
2022/03/12 04:29:18;;;;;;;18.88;5.47;;;8.40;99.90;;;;;;4996877;28;20022;-64
2022/03/12 04:31:49;;;;;;;16.95;5.07;;;8.40;99.90;;;;;;4992991;28;20031;-64
2022/03/12 04:34:15;;;;;;;14.48;4.60;;;8.20;99.90;;;;;;5006996;28;20022;-65
2022/03/12 04:36:46;;;;;;;16.13;4.95;;;8.20;99.90;;;;;;4996703;28;20085;-64
2022/03/12 04:39:12;;;;;;;11.73;4.15;;;8.30;99.90;;;;;;4995485;28;20042;-65
2022/03/12 04:41:39;;;;;;;19.67;5.05;;;8.20;99.90;;;;;;4996718;28;20537;-65
2022/03/12 04:44:07;;;;;;;15.05;4.45;;;8.20;99.90;;;;;;4995720;28;20100;-65
2022/03/12 04:46:34;;;;;;;18.40;4.78;;;8.20;99.90;;;;;;4994154;28;20511;-65
2022/03/12 04:49:01;;;;;;;17.73;4.55;;;8.20;99.90;;;;;;4997958;28;20098;-64
2022/03/12 04:51:30;;;;;;;20.95;5.25;;;8.10;99.90;;;;;;4997054;28;20037;-65
2022/03/12 04:53:59;;;;;;;18.02;5.93;;;8.10;99.90;;;;;;4996422;28;20018;-65
2022/03/12 04:56:26;;;;;;;15.85;4.50;;;8.00;99.90;;;;;;4996985;28;20057;-64
2022/03/12 04:58:53;;;;;;;21.58;5.63;;;8.10;99.90;;;;;;4993600;28;20057;-64
2022/03/12 05:01:25;;;;;;;21.80;5.80;;;8.10;99.90;;;;;;4996635;28;20479;-64
2022/03/12 05:03:52;;;;;;;21.50;5.90;;;8.00;99.90;;;;;;4998387;28;20085;-64
2022/03/12 05:06:19;;;;;;;36.92;30.70;;;8.00;99.90;;;;;;4995450;28;20041;-64
2022/03/12 05:08:45;;;;;;;22.55;9.23;;;7.90;99.90;;;;;;4996563;28;20065;-64
2022/03/12 05:11:11;;;;;;;16.33;5.57;;;8.00;99.90;;;;;;4995536;28;20033;-64
2022/03/12 05:13:37;;;;;;;17.65;5.18;;;8.00;99.90;;;;;;4993190;28;20026;-64
2022/03/12 05:16:08;;;;;;;13.40;4.55;;;8.00;99.90;;;;;;4997603;28;20164;-64
2022/03/12 05:18:40;;;;;;;18.85;4.70;;;8.00;99.90;;;;;;4994887;28;20042;-64
2022/03/12 05:21:06;;;;;;;13.55;4.07;;;8.00;99.90;;;;;;4996368;28;20027;-64
2022/03/12 05:23:33;;;;;;;17.15;4.82;;;7.90;99.90;;;;;;4995553;28;20033;-64
2022/03/12 05:25:59;;;;;;;14.73;5.25;;;7.80;99.90;;;;;;4992312;28;20042;-64
2022/03/12 05:28:30;;;;;;;22.02;5.95;;;7.90;99.90;;;;;;4994750;28;20174;-64
2022/03/12 05:30:58;;;;;;;20.73;5.38;;;7.80;99.90;;;;;;4996494;28;20034;-65
2022/03/12 05:33:25;;;;;;;15.80;4.88;;;7.80;99.90;;;;;;4996545;28;20038;-64
2022/03/12 05:35:54;;;;;;;18.45;5.40;;;7.80;99.90;;;;;;4996115;28;20026;-64
2022/03/12 05:38:23;;;;;;;27.13;5.65;;;7.80;99.90;;;;;;4995983;28;20097;-65
2022/03/12 05:40:50;;;;;;;23.00;5.75;;;7.70;99.90;;;;;;4992197;28;20058;-64
2022/03/12 05:43:17;;;;;;;21.02;6.00;;;7.60;99.90;;;;;;4996691;28;20034;-64
2022/03/12 05:45:48;;;;;;;16.98;4.85;;;7.60;99.90;;;;;;4995340;28;20041;-64
2022/03/12 05:48:15;;;;;;;16.92;4.47;;;7.60;99.90;;;;;;4996141;28;20023;-64
2022/03/12 05:50:43;;;;;;;23.83;5.05;;;7.60;99.90;;;;;;4995771;28;20026;-65
2022/03/12 05:53:14;;;;;;;23.98;4.93;;;7.60;99.90;;;;;;4994757;28;20346;-64
2022/03/12 05:55:40;;;;;;;15.02;4.40;;;7.60;99.90;;;;;;4989679;28;20049;-64
2022/03/12 05:58:07;;;;;;;14.07;4.13;;;7.50;99.90;;;;;;4997410;28;20113;-65
2022/03/12 06:00:34;;;;;;;14.88;4.63;;;7.60;99.90;;;;;;4995470;28;20041;-64
2022/03/12 06:03:01;;;;;;;20.75;5.00;;;7.70;99.90;;;;;;4995605;28;20027;-64
2022/03/12 06:05:27;;;;;;;18.40;4.60;;;7.70;99.90;;;;;;4994238;28;20029;-64
2022/03/12 06:07:54;;;;;;;20.50;4.95;;;7.60;99.90;;;;;;4992359;28;20109;-64
2022/03/12 06:10:25;;;;;;;17.58;4.70;;;7.60;99.90;;;;;;4995462;28;20037;-64
2022/03/12 06:12:53;;;;;;;13.98;4.18;;;7.60;99.90;;;;;;4997527;28;20101;-64
2022/03/12 06:15:22;;;;;;;23.70;4.75;;;7.60;99.90;;;;;;4995368;28;20399;-64
2022/03/12 06:17:51;;;;;;;22.30;4.78;;;7.50;99.90;;;;;;4995155;28;20034;-64
2022/03/12 06:20:21;;;;;;;23.92;4.95;;;7.50;99.90;;;;;;4995315;28;20089;-64
2022/03/12 06:22:51;;;;;;;17.02;4.60;;;7.40;99.90;;;;;;4990061;28;20027;-64
2022/03/12 06:25:17;;;;;;;21.05;5.32;;;7.20;99.90;;;;;;4995342;28;20084;-64
2022/03/12 06:27:53;;;;;;;16.92;4.97;;;7.10;99.90;;;;;;4994630;28;20109;-64
2022/03/12 06:30:21;;;;;;;16.48;5.30;;;7.10;99.90;;;;;;4995039;28;20018;-64
2022/03/12 06:32:47;;;;;;;18.88;5.28;;;7.10;99.90;;;;;;4995026;28;20042;-63
2022/03/12 06:35:15;;;;;;;19.25;5.38;;;6.90;99.90;;;;;;4993766;28;20076;-62
2022/03/12 06:37:42;;;;;;;22.60;5.93;;;7.10;99.90;;;;;;4990082;28;20039;-62
2022/03/12 06:40:10;;;;;;;21.50;6.05;;;7.00;99.90;;;;;;4997218;28;20061;-63
2022/03/12 06:42:40;;;;;;;23.00;6.90;;;7.00;99.90;;;;;;4994723;28;20389;-61
2022/03/12 06:45:08;;;;;;;24.02;6.88;;;7.00;99.90;;;;;;4993467;28;20030;-61
2022/03/12 06:47:37;;;;;;;17.75;5.63;;;7.10;99.90;;;;;;4995016;28;20061;-60
2022/03/12 06:50:04;;;;;;;17.23;6.07;;;7.20;99.90;;;;;;4993100;28;20034;-61
2022/03/12 06:52:29;;;;;;;17.65;7.03;;;7.30;99.90;;;;;;4991627;28;20105;-62
2022/03/12 06:54:56;;;;;;;19.23;6.28;;;7.40;99.90;;;;;;4996753;28;20530;-61
2022/03/12 06:57:22;;;;;;;14.05;5.10;;;7.50;99.90;;;;;;4994465;28;20517;-61
2022/03/12 06:59:48;;;;;;;17.45;4.95;;;7.50;99.90;;;;;;4994415;28;20027;-61
2022/03/12 07:02:14;;;;;;;25.15;6.05;;;7.60;99.90;;;;;;4993234;28;20026;-62
2022/03/12 07:04:40;;;;;;;19.52;5.18;;;7.70;99.90;;;;;;4990554;28;20560;-61
2022/03/12 07:07:06;;;;;;;13.32;4.55;;;7.70;99.90;;;;;;4996129;28;20026;-61
2022/03/12 07:09:34;;;;;;;15.15;4.75;;;7.80;99.90;;;;;;4994586;28;20030;-61
2022/03/12 07:12:00;;;;;;;17.05;6.20;;;7.80;99.90;;;;;;4994315;28;20034;-61
2022/03/12 07:14:27;;;;;;;19.58;6.32;;;7.80;99.90;;;;;;4993257;28;20028;-62
2022/03/12 07:16:54;;;;;;;17.58;7.28;;;7.80;99.90;;;;;;4991753;28;20054;-62
2022/03/12 07:19:20;;;;;;;14.10;5.50;;;7.90;99.90;;;;;;4994492;28;20038;-61
2022/03/12 07:21:46;;;;;;;21.63;6.95;;;8.00;99.90;;;;;;4994708;28;20038;-62
2022/03/12 07:24:12;;;;;;;17.40;6.03;;;7.90;99.90;;;;;;4992974;28;20030;-63
2022/03/12 07:26:39;;;;;;;20.05;5.57;;;8.00;99.90;;;;;;4994446;28;20487;-62
2022/03/12 07:29:05;;;;;;;24.33;12.77;;;8.00;99.90;;;;;;4992823;28;20030;-62
2022/03/12 07:31:31;;;;;;;18.13;5.70;;;8.00;99.90;;;;;;4991686;28;20038;-62
2022/03/12 07:33:57;;;;;;;14.80;5.25;;;8.10;99.90;;;;;;4996428;28;20030;-63
2022/03/12 07:36:22;;;;;;;17.60;5.90;;;8.10;99.90;;;;;;4993916;28;20026;-62
2022/03/12 07:38:48;;;;;;;18.42;5.35;;;8.20;99.90;;;;;;4995735;28;20034;-62
2022/03/12 07:41:14;;;;;;;20.52;6.10;;;8.10;99.90;;;;;;4996278;28;20057;-62
2022/03/12 07:43:40;;;;;;;20.67;5.93;;;8.00;99.90;;;;;;4994279;28;20030;-63
2022/03/12 07:46:07;;;;;;;19.98;6.03;;;8.00;99.90;;;;;;5000201;28;20030;-63
2022/03/12 07:48:33;;;;;;;17.70;5.28;;;8.00;99.90;;;;;;4997565;28;20034;-63
2022/03/12 07:51:01;;;;;;;14.77;5.55;;;8.00;99.90;;;;;;4997950;28;20039;-62
2022/03/12 07:53:27;;;;;;;21.25;5.82;;;8.20;99.90;;;;;;4996401;28;20475;-62
2022/03/12 07:55:53;;;;;;;18.63;5.55;;;8.20;99.90;;;;;;4995056;28;20031;-66
2022/03/12 07:58:20;;;;;;;18.05;5.32;;;8.40;99.90;;;;;;4998350;28;20415;-62
2022/03/12 08:00:46;;;;;;;13.65;5.35;;;8.30;99.90;;;;;;4998856;28;20069;-62
2022/03/12 08:03:12;;;;;;;16.77;4.53;;;8.60;99.90;;;;;;4996225;28;20443;-62
2022/03/12 08:05:38;;;;;;;16.55;4.85;;;8.80;99.90;;;;;;4997501;28;20023;-62
2022/03/12 08:08:04;;;;;;;20.40;5.63;;;9.10;99.90;;;;;;4995847;28;20026;-63
2022/03/12 08:11:24;;;;;;;17.95;5.22;;;9.10;99.90;;;;;;4995044;28;20061;-63
2022/03/12 08:13:19;;;;;;;21.65;5.60;;;9.40;99.90;;;;;;4996996;28;20041;-62
2022/03/12 08:15:45;;;;;;;17.58;5.55;;;9.40;99.90;;;;;;4997205;28;20093;-62
2022/03/12 08:18:11;;;;;;;18.10;5.25;;;9.60;99.90;;;;;;4997304;28;20042;-63
2022/03/12 08:20:37;;;;;;;17.27;5.22;;;9.80;99.90;;;;;;4995941;28;20041;-63
2022/03/12 08:23:03;;;;;;;16.08;5.07;;;9.80;99.90;;;;;;4995680;28;20034;-63
2022/03/12 08:25:29;;;;;;;14.65;4.55;;;10.00;99.90;;;;;;4994689;28;20041;-63
2022/03/12 08:27:55;;;;;;;16.83;5.13;;;10.10;99.90;;;;;;4999550;28;20023;-64
2022/03/12 08:30:21;;;;;;;17.83;4.90;;;10.30;99.90;;;;;;4996182;28;20044;-64
2022/03/12 08:32:47;;;;;;;11.35;4.25;;;10.40;99.90;;;;;;4996041;28;20148;-63
2022/03/12 08:35:13;;;;;;;15.23;5.07;;;10.20;99.90;;;;;;4996523;28;20083;-64
2022/03/12 08:37:39;;;;;;;17.67;5.38;;;10.20;99.90;;;;;;4993271;28;20035;-64
2022/03/12 08:40:06;;;;;;;18.25;4.45;;;10.30;99.90;;;;;;4999571;28;20046;-63
2022/03/12 08:42:34;;;;;;;14.95;4.35;;;10.50;99.90;;;;;;4996044;28;20458;-64
2022/03/12 08:45:00;;;;;;;15.27;5.03;;;10.50;99.90;;;;;;4997068;28;20030;-64
2022/03/12 08:47:27;;;;;;;15.13;4.53;;;10.50;99.90;;;;;;4997179;28;20033;-64
2022/03/12 08:49:52;;;;;;;14.93;4.20;;;10.60;99.90;;;;;;4992461;28;20034;-64
2022/03/12 08:52:20;;;;;;;14.13;4.15;;;10.70;99.90;;;;;;4996030;28;20451;-64
2022/03/12 08:54:45;;;;;;;13.30;4.07;;;10.30;99.90;;;;;;4997996;28;20660;-64
2022/03/12 08:57:11;;;;;;;15.85;4.25;;;10.50;99.90;;;;;;4997275;28;20038;-63
2022/03/12 08:59:37;;;;;;;13.18;4.78;;;10.30;99.90;;;;;;4995474;28;20093;-64
2022/03/12 09:02:03;;;;;;;13.95;4.07;;;10.80;99.90;;;;;;4995269;28;20034;-64
2022/03/12 09:04:29;;;;;;;13.70;4.43;;;11.00;99.90;;;;;;4994159;28;20065;-64
2022/03/12 09:06:55;;;;;;;12.55;3.97;;;11.80;99.90;;;;;;4998875;28;20049;-64
2022/03/12 09:09:20;;;;;;;9.57;4.05;;;12.50;99.90;;;;;;4996724;28;20045;-64
2022/03/12 09:11:46;;;;;;;11.68;4.30;;;13.90;99.90;;;;;;4995187;28;20026;-63
2022/03/12 09:14:12;;;;;;;12.18;3.97;;;15.30;99.90;;;;;;4996020;28;20033;-64
2022/03/12 09:16:38;;;;;;;11.35;3.80;;;16.50;99.90;;;;;;4993011;28;20026;-63
2022/03/12 09:19:04;;;;;;;12.88;3.80;;;16.30;99.90;;;;;;4998174;28;20038;-63
2022/03/12 09:21:30;;;;;;;12.45;3.85;;;17.90;99.90;;;;;;4995166;28;20391;-63
2022/03/12 09:23:56;;;;;;;9.05;3.60;;;17.30;99.90;;;;;;4996511;28;20026;-64
2022/03/12 09:26:22;;;;;;;11.05;3.80;;;16.70;99.90;;;;;;4997853;28;20438;-63
2022/03/12 09:28:48;;;;;;;12.23;4.20;;;15.40;99.90;;;;;;4992857;28;20114;-64
2022/03/12 09:31:14;;;;;;;13.45;4.10;;;15.20;99.90;;;;;;4997856;28;20387;-64
2022/03/12 09:33:40;;;;;;;11.35;3.70;;;15.80;99.90;;;;;;4994239;28;20057;-64
2022/03/12 09:36:07;;;;;;;14.40;4.00;;;16.40;99.90;;;;;;4996140;28;20130;-64
2022/03/12 09:38:33;;;;;;;9.27;3.60;;;16.10;99.90;;;;;;4994538;28;20520;-64
2022/03/12 09:40:59;;;;;;;11.05;3.63;;;15.80;99.90;;;;;;4993596;28;20046;-64
2022/03/12 09:43:24;;;;;;;11.52;3.20;;;16.30;99.90;;;;;;4995233;28;20033;-64
2022/03/12 09:45:50;;;;;;;8.05;3.10;;;15.90;99.90;;;;;;4996440;28;20026;-64
2022/03/12 09:48:17;;;;;;;9.38;3.60;;;15.00;99.90;;;;;;4995775;28;20026;-64
2022/03/12 09:50:43;;;;;;;10.57;2.83;;;18.10;99.90;;;;;;4994932;28;20037;-64
2022/03/12 09:53:09;;;;;;;9.38;3.22;;;20.20;99.90;;;;;;4994917;28;20029;-64
2022/03/12 09:55:35;;;;;;;6.63;2.50;;;20.80;99.90;;;;;;4992602;28;20488;-64
2022/03/12 09:58:01;;;;;;;7.80;3.35;;;19.80;99.90;;;;;;4997762;28;20077;-64
2022/03/12 10:00:27;;;;;;;7.18;2.35;;;18.90;99.90;;;;;;4994220;28;20146;-64
2022/03/12 10:02:53;;;;;;;8.70;2.55;;;19.10;99.90;;;;;;4995314;28;20023;-64
2022/03/12 10:05:18;;;;;;;10.30;2.80;;;19.10;99.90;;;;;;4995559;28;20057;-64
2022/03/12 10:07:44;;;;;;;5.10;2.10;;;18.80;99.90;;;;;;4991884;28;20019;-64
2022/03/12 10:10:15;;;;;;;7.75;2.58;;;19.20;99.90;;;;;;5004511;28;20034;-64
2022/03/12 10:12:45;;;;;;;7.28;2.30;;;20.40;99.90;;;;;;4996206;28;20583;-64
2022/03/12 10:15:12;;;;;;;4.97;1.98;;;20.20;98.20;;;;;;4995330;28;20045;-64
2022/03/12 10:17:39;;;;;;;5.70;2.17;;;20.70;96.70;;;;;;4994207;28;20034;-64
2022/03/12 10:20:08;;;;;;;5.10;2.17;;;20.70;97.40;;;;;;4993867;28;20173;-64
2022/03/12 10:22:34;;;;;;;6.65;2.20;;;19.90;97.40;;;;;;4992378;28;20100;-64
2022/03/12 10:24:59;;;;;;;5.05;2.03;;;19.50;97.10;;;;;;4997554;28;20483;-64
2022/03/12 10:27:25;;;;;;;4.90;1.90;;;18.10;99.90;;;;;;4995742;28;20470;-64
2022/03/12 10:29:51;;;;;;;6.65;2.05;;;18.80;99.80;;;;;;4993512;28;20054;-64
2022/03/12 10:32:23;;;;;;;7.28;2.13;;;19.80;97.80;;;;;;4995399;28;20030;-65
2022/03/12 10:34:56;;;;;;;8.15;2.17;;;17.80;99.90;;;;;;4991849;28;20097;-65
2022/03/12 10:37:28;;;;;;;8.40;2.25;;;18.60;98.60;;;;;;4994594;28;20027;-64
2022/03/12 10:40:15;;;;;;;5.70;1.90;;;18.50;99.60;;;;;;4995108;28;20046;-65
2022/03/12 10:43:01;;;;;;;4.88;1.67;;;17.50;98.70;;;;;;4995662;28;20042;-64
2022/03/12 10:45:39;;;;;;;5.38;1.70;;;17.70;99.50;;;;;;4994950;28;20035;-64
2022/03/12 10:48:05;;;;;;;3.97;1.65;;;18.00;98.70;;;;;;4995363;28;20109;-64
2022/03/12 10:50:36;;;;;;;5.15;1.67;;;19.10;97.60;;;;;;4994928;28;20022;-64
2022/03/12 10:53:06;;;;;;;3.80;1.50;;;18.00;96.80;;;;;;4993072;28;20066;-64
2022/03/12 10:55:38;;;;;;;5.72;1.90;;;16.90;98.40;;;;;;4992459;28;20109;-64
2022/03/12 10:58:05;;;;;;;5.45;1.60;;;17.40;98.80;;;;;;4996144;28;20046;-64
2022/03/12 11:00:40;;;;;;;4.32;1.50;;;17.40;98.50;;;;;;4994614;28;20026;-65
2022/03/12 11:03:10;;;;;;;4.93;1.67;;;16.40;99.50;;;;;;4995066;28;20053;-65
2022/03/12 11:05:37;;;;;;;2.45;1.20;;;15.40;99.90;;;;;;4994838;28;20422;-65
2022/03/12 11:08:23;;;;;;;4.80;1.50;;;16.30;99.90;;;;;;4991563;28;20102;-64
2022/03/12 11:11:11;;;;;;;4.38;1.50;;;16.00;99.90;;;;;;4976561;28;20034;-64
2022/03/12 11:13:48;;;;;;;3.35;1.60;;;17.40;99.90;;;;;;4990314;28;20035;-65
2022/03/12 11:16:19;;;;;;;3.15;1.27;;;17.60;98.80;;;;;;5004354;28;20025;-65
2022/03/12 11:18:50;;;;;;;4.75;1.70;;;16.60;99.90;;;;;;4994185;28;20038;-65
2022/03/12 11:21:33;;;;;;;2.88;1.25;;;16.00;99.90;;;;;;4994888;28;20030;-65
2022/03/12 11:23:59;;;;;;;4.38;1.20;;;16.30;99.10;;;;;;4994572;28;20057;-65
2022/03/12 11:26:26;;;;;;;4.22;1.63;;;16.40;99.90;;;;;;4994758;28;20502;-64
2022/03/12 11:28:59;;;;;;;2.40;1.23;;;17.40;99.90;;;;;;4989955;28;20411;-64
2022/03/12 11:31:59;;;;;;;5.63;2.03;;;17.20;98.30;;;;;;4993426;28;20061;-65
2022/03/12 11:34:33;;;;;;;2.83;1.55;;;17.00;99.90;;;;;;4967137;28;20039;-65
2022/03/12 11:37:05;;;;;;;3.03;1.63;;;16.40;99.30;;;;;;4957311;28;20114;-64
2022/03/12 11:39:37;;;;;;;3.13;1.40;;;16.70;99.90;;;;;;4956496;28;20098;-65
2022/03/12 11:42:11;;;;;;;7.10;1.65;;;16.80;99.90;;;;;;4956477;28;20170;-65
2022/03/12 11:44:46;;;;;;;5.05;1.55;;;15.60;99.90;;;;;;4956235;28;20034;-65
2022/03/12 11:47:23;;;;;;;3.50;1.20;;;16.60;99.90;;;;;;4955906;28;20109;-65
2022/03/12 11:49:50;;;;;;;3.28;1.10;;;16.40;99.90;;;;;;4953850;28;20043;-65
2022/03/12 11:52:19;;;;;;;3.58;1.15;;;16.90;99.90;;;;;;4951353;28;20035;-65
2022/03/12 11:54:45;;;;;;;3.53;1.58;;;17.10;98.90;;;;;;4942723;29;20436;-65
2022/03/12 11:57:20;;;;;;;3.67;1.30;;;16.10;99.90;;;;;;4955970;28;20079;-66
2022/03/12 11:59:46;;;;;;;2.47;1.17;;;16.20;99.20;;;;;;4956313;28;20570;-65
2022/03/12 12:02:25;;;;;;;3.60;1.40;;;16.40;99.30;;;;;;4955368;28;20027;-64
2022/03/12 12:04:53;;;;;;;3.80;1.38;;;16.50;99.90;;;;;;4953444;28;20447;-65
2022/03/12 12:07:29;;;;;;;4.68;1.65;;;16.90;98.70;;;;;;4951017;28;20027;-65
2022/03/12 12:09:55;;;;;;;4.90;1.45;;;16.20;99.90;;;;;;4961953;28;20053;-65
2022/03/12 12:12:24;;;;;;;5.10;1.50;;;16.20;99.90;;;;;;4991433;28;20562;-65
2022/03/12 12:14:50;;;;;;;2.95;1.42;;;15.40;99.90;;;;;;4992643;28;20022;-65
2022/03/12 12:17:16;;;;;;;4.68;1.25;;;15.90;99.90;;;;;;4993844;28;20025;-65
2022/03/12 12:19:42;;;;;;;5.90;1.50;;;16.80;99.10;;;;;;4990255;28;20177;-65
2022/03/12 12:22:08;;;;;;;3.13;1.23;;;15.50;99.70;;;;;;4996246;28;20026;-65
2022/03/12 12:24:38;;;;;;;3.38;1.20;;;15.30;99.80;;;;;;4995513;28;20084;-64
2022/03/12 12:27:09;;;;;;;2.95;1.13;;;15.10;99.90;;;;;;4995821;28;20037;-65
2022/03/12 12:29:50;;;;;;;2.67;1.20;;;15.40;99.90;;;;;;4997570;28;20041;-65
2022/03/12 12:32:25;;;;;;;4.43;1.20;;;15.50;99.90;;;;;;4997273;28;20160;-65
2022/03/12 12:34:59;;;;;;;3.20;1.15;;;15.10;99.90;;;;;;4977962;28;20031;-64
2022/03/12 12:37:54;;;;;;;4.30;1.35;;;15.00;99.90;;;;;;4996698;28;20031;-65
2022/03/12 12:40:26;;;;;;;4.00;1.40;;;15.40;99.90;;;;;;5007169;28;20141;-65
2022/03/12 12:42:55;;;;;;;3.75;1.40;;;15.20;99.90;;;;;;4998803;28;20101;-65
2022/03/12 12:45:27;;;;;;;4.85;1.30;;;15.60;99.90;;;;;;4997329;28;20015;-65
2022/03/12 12:48:08;;;;;;;5.25;1.30;;;15.60;99.90;;;;;;4997167;28;20057;-65
2022/03/12 12:50:34;;;;;;;5.30;1.30;;;15.60;99.90;;;;;;4997238;28;20057;-65
2022/03/12 12:53:27;;;;;;;3.42;1.30;;;15.80;99.90;;;;;;4993714;28;20055;-65